createdAt,value
2018-07-27T00:00:31.678Z,100033
2018-07-27T00:01:37.120Z,100033
2018-07-27T00:02:42.323Z,100042
2018-07-27T00:03:48.197Z,100027
2018-07-27T00:04:53.343Z,100036
2018-07-27T00:05:58.485Z,100033
2018-07-27T00:07:03.929Z,100033
2018-07-27T00:08:09.092Z,100039
2018-07-27T00:09:14.531Z,100036
2018-07-27T00:10:19.931Z,100039
2018-07-27T00:11:25.101Z,100033
2018-07-27T00:12:30.420Z,100036
2018-07-27T00:13:35.579Z,100030
2018-07-27T00:14:40.722Z,100036
2018-07-27T00:15:46.010Z,100030
2018-07-27T00:16:51.194Z,100030
2018-07-27T00:17:55.782Z,100036
2018-07-27T00:19:01.340Z,100042
2018-07-27T00:20:06.222Z,100036
2018-07-27T00:21:11.125Z,100030
2018-07-27T00:22:16.826Z,100036
2018-07-27T00:23:22.279Z,100039
2018-07-27T00:24:27.827Z,100036
2018-07-27T00:25:33.053Z,100045
2018-07-27T00:26:38.206Z,100030
2018-07-27T00:27:43.354Z,100030
2018-07-27T00:28:48.310Z,100030
2018-07-27T00:29:52.900Z,100027
2018-07-27T00:30:58.588Z,100030
2018-07-27T00:32:03.736Z,100024
2018-07-27T00:33:09.005Z,100030
2018-07-27T00:34:14.194Z,100030
2018-07-27T00:35:19.370Z,100027
2018-07-27T00:37:44.757Z,100021
2018-07-27T00:38:50.187Z,100033
2018-07-27T00:39:55.615Z,100039
2018-07-27T00:41:00.500Z,100030
2018-07-27T00:42:05.391Z,100030
2018-07-27T00:43:10.898Z,100030
2018-07-27T00:44:15.764Z,100036
2018-07-27T00:45:20.967Z,100033
2018-07-27T00:46:26.481Z,100024
2018-07-27T00:47:31.337Z,100030
2018-07-27T00:48:36.649Z,100030
2018-07-27T00:49:42.077Z,100039
2018-07-27T00:50:47.228Z,100027
2018-07-27T00:51:52.340Z,100033
2018-07-27T00:52:57.552Z,100027
2018-07-27T00:54:02.175Z,100030
2018-07-27T00:55:07.627Z,100030
2018-07-27T00:56:12.901Z,100024
2018-07-27T00:57:18.392Z,100027
2018-07-27T00:58:22.978Z,100024
2018-07-27T00:59:27.558Z,100027
2018-07-27T01:00:33.261Z,100033
2018-07-27T01:01:38.419Z,100027
2018-07-27T01:02:43.572Z,100033
2018-07-27T01:03:49.118Z,100024
2018-07-27T01:04:54.018Z,100015
2018-07-27T01:05:59.482Z,100013
2018-07-27T01:07:05.355Z,100013
2018-07-27T01:08:10.234Z,100021
2018-07-27T01:09:15.526Z,100018
2018-07-27T01:10:21.204Z,100024
2018-07-27T01:11:26.704Z,100015
2018-07-27T01:12:32.541Z,100021
2018-07-27T01:13:37.977Z,100015
2018-07-27T01:14:42.898Z,100030
2018-07-27T01:15:48.712Z,100015
2018-07-27T01:16:53.291Z,100018
2018-07-27T01:17:58.162Z,100030
2018-07-27T01:19:03.890Z,100027
2018-07-27T01:20:09.100Z,100018
2018-07-27T01:21:14.549Z,100021
2018-07-27T01:22:19.959Z,100018
2018-07-27T01:23:25.172Z,100018
2018-07-27T01:24:30.637Z,100015
2018-07-27T01:25:35.809Z,100013
2018-07-27T01:26:40.985Z,100013
2018-07-27T01:27:46.133Z,100018
2018-07-27T01:28:51.291Z,100015
2018-07-27T01:29:56.777Z,100007
2018-07-27T01:31:02.193Z,100013
2018-07-27T01:32:07.170Z,100007
2018-07-27T01:33:12.627Z,100010
2018-07-27T01:34:18.580Z,100007
2018-07-27T01:35:24.010Z,100007
2018-07-27T01:36:29.827Z,100010
2018-07-27T01:37:34.982Z,100001
2018-07-27T01:38:39.865Z,100007
2018-07-27T01:39:45.343Z,100004
2018-07-27T01:40:50.224Z,100007
2018-07-27T01:41:55.412Z,100010
2018-07-27T01:43:00.835Z,100007
2018-07-27T01:44:05.710Z,100007
2018-07-27T01:45:10.885Z,100015
2018-07-27T01:46:16.318Z,100007
2018-07-27T01:47:21.746Z,100013
2018-07-27T01:48:27.519Z,100007
2018-07-27T01:49:32.948Z,100007
2018-07-27T01:50:38.099Z,100007
2018-07-27T01:51:43.651Z,100001
2018-07-27T01:52:49.376Z,100007
2018-07-27T01:53:54.594Z,100013
2018-07-27T01:54:59.995Z,100001
2018-07-27T01:56:04.610Z,99995
2018-07-27T01:57:10.119Z,99995
2018-07-27T01:58:15.810Z,100007
2018-07-27T01:59:21.049Z,100001
2018-07-27T02:00:41.209Z,99992
2018-07-27T02:01:46.080Z,99995
2018-07-27T02:02:51.760Z,100013
2018-07-27T02:03:57.453Z,99992
2018-07-27T02:05:02.316Z,100004
2018-07-27T02:06:07.706Z,100001
2018-07-27T02:07:12.930Z,99998
2018-07-27T02:08:18.362Z,99998
2018-07-27T02:09:23.811Z,100001
2018-07-27T02:10:44.301Z,100010
2018-07-27T02:11:49.227Z,100001
2018-07-27T02:12:54.970Z,99995
2018-07-27T02:14:00.234Z,99998
2018-07-27T02:15:04.856Z,100004
2018-07-27T02:16:10.280Z,99989
2018-07-27T02:17:15.425Z,99992
2018-07-27T02:18:20.374Z,99992
2018-07-27T02:19:25.298Z,100001
2018-07-27T02:20:30.485Z,99998
2018-07-27T02:21:36.463Z,99992
2018-07-27T02:22:41.448Z,99989
2018-07-27T02:23:46.605Z,99989
2018-07-27T02:24:52.104Z,99992
2018-07-27T02:25:57.339Z,99986
2018-07-27T02:27:02.498Z,99989
2018-07-27T02:28:07.918Z,99980
2018-07-27T02:29:12.952Z,99977
2018-07-27T02:30:17.967Z,99980
2018-07-27T02:31:23.082Z,99983
2018-07-27T02:32:28.563Z,99980
2018-07-27T02:33:34.277Z,99975
2018-07-27T02:34:38.601Z,99977
2018-07-27T02:35:43.839Z,99986
2018-07-27T02:36:49.516Z,99983
2018-07-27T02:37:54.667Z,99980
2018-07-27T02:38:59.538Z,99977
2018-07-27T02:40:05.444Z,99972
2018-07-27T02:41:11.037Z,99983
2018-07-27T02:42:16.596Z,99975
2018-07-27T02:43:22.451Z,99980
2018-07-27T02:44:27.939Z,99980
2018-07-27T02:45:33.456Z,99975
2018-07-27T02:46:38.328Z,99977
2018-07-27T02:47:43.857Z,99986
2018-07-27T02:48:49.586Z,99983
2018-07-27T02:49:55.034Z,99972
2018-07-27T02:51:00.536Z,99977
2018-07-27T02:52:06.330Z,99972
2018-07-27T02:53:11.777Z,99969
2018-07-27T02:54:17.253Z,99967
2018-07-27T02:55:22.821Z,99969
2018-07-27T02:56:28.021Z,99969
2018-07-27T02:57:33.895Z,99972
2018-07-27T02:58:38.298Z,99975
2018-07-27T02:59:43.726Z,99972
2018-07-27T03:00:49.232Z,99975
2018-07-27T03:01:54.114Z,99975
2018-07-27T03:02:59.556Z,99983
2018-07-27T03:04:05.044Z,99958
2018-07-27T03:05:10.229Z,99961
2018-07-27T03:06:15.114Z,99980
2018-07-27T03:07:20.509Z,99967
2018-07-27T03:08:25.446Z,99975
2018-07-27T03:09:31.004Z,99977
2018-07-27T03:10:35.949Z,99958
2018-07-27T03:11:41.295Z,99969
2018-07-27T03:12:46.412Z,99961
2018-07-27T03:13:51.561Z,99964
2018-07-27T03:14:56.428Z,99961
2018-07-27T03:16:01.982Z,99961
2018-07-27T03:17:07.269Z,99958
2018-07-27T03:18:12.730Z,99961
2018-07-27T03:19:18.452Z,99969
2018-07-27T03:20:23.312Z,99958
2018-07-27T03:21:28.590Z,99955
2018-07-27T03:22:34.047Z,99961
2018-07-27T03:23:39.468Z,99964
2018-07-27T03:24:44.977Z,99958
2018-07-27T03:25:50.404Z,99955
2018-07-27T03:26:55.855Z,99967
2018-07-27T03:28:00.739Z,99955
2018-07-27T03:29:05.886Z,99958
2018-07-27T03:30:11.157Z,99967
2018-07-27T03:31:16.881Z,99967
2018-07-27T03:32:22.328Z,99967
2018-07-27T03:33:28.256Z,99961
2018-07-27T03:34:33.713Z,99967
2018-07-27T03:35:39.144Z,99964
2018-07-27T03:36:44.870Z,99972
2018-07-27T03:37:49.496Z,99967
2018-07-27T03:38:54.360Z,99961
2018-07-27T03:39:59.819Z,99967
2018-07-27T03:41:05.031Z,99964
2018-07-27T03:42:10.426Z,99967
2018-07-27T03:43:16.448Z,99961
2018-07-27T03:44:21.083Z,99961
2018-07-27T03:45:41.243Z,99967
2018-07-27T03:46:46.391Z,99961
2018-07-27T03:47:51.534Z,99964
2018-07-27T03:48:57.069Z,99969
2018-07-27T03:50:02.216Z,99964
2018-07-27T03:51:06.355Z,99967
2018-07-27T03:52:11.902Z,99969
2018-07-27T03:53:16.806Z,99980
2018-07-27T03:54:22.009Z,99972
2018-07-27T03:55:42.098Z,99983
2018-07-27T03:56:47.279Z,99980
2018-07-27T03:57:52.973Z,99980
2018-07-27T03:58:57.871Z,99975
2018-07-27T04:00:02.479Z,99977
2018-07-27T04:01:06.895Z,99977
2018-07-27T04:02:12.134Z,99986
2018-07-27T04:03:17.121Z,99980
2018-07-27T04:04:22.974Z,99980
2018-07-27T04:05:28.205Z,99983
2018-07-27T04:06:33.757Z,99977
2018-07-27T04:07:38.898Z,99980
2018-07-27T04:08:43.691Z,99980
2018-07-27T04:09:49.133Z,99980
2018-07-27T04:10:54.624Z,99983
2018-07-27T04:12:00.063Z,99983
2018-07-27T04:13:05.267Z,99980
2018-07-27T04:14:10.172Z,99977
2018-07-27T04:15:15.689Z,99980
2018-07-27T04:16:20.537Z,99977
2018-07-27T04:17:25.968Z,99975
2018-07-27T04:18:31.855Z,99969
2018-07-27T04:19:36.450Z,99972
2018-07-27T04:20:41.386Z,99972
2018-07-27T04:21:47.091Z,99975
2018-07-27T04:22:52.236Z,99969
2018-07-27T04:23:57.710Z,99977
2018-07-27T04:25:03.064Z,99969
2018-07-27T04:26:07.940Z,99972
2018-07-27T04:27:13.200Z,99972
2018-07-27T04:28:18.340Z,99967
2018-07-27T04:29:23.520Z,99977
2018-07-27T04:30:29.152Z,99967
2018-07-27T04:31:34.617Z,99975
2018-07-27T04:32:39.963Z,99972
2018-07-27T04:33:45.506Z,99969
2018-07-27T04:34:51.021Z,99964
2018-07-27T04:35:55.888Z,99958
2018-07-27T04:37:01.478Z,99975
2018-07-27T04:38:06.473Z,99967
2018-07-27T04:39:11.948Z,99969
2018-07-27T04:40:17.626Z,99972
2018-07-27T04:41:23.120Z,99967
2018-07-27T04:42:29.453Z,99975
2018-07-27T04:43:34.315Z,99969
2018-07-27T04:44:39.740Z,99980
2018-07-27T04:45:45.192Z,99975
2018-07-27T04:46:50.391Z,99980
2018-07-27T04:47:55.037Z,99972
2018-07-27T04:49:00.127Z,99975
2018-07-27T04:50:05.073Z,99972
2018-07-27T04:51:10.010Z,99977
2018-07-27T04:52:15.417Z,99972
2018-07-27T04:53:20.289Z,99975
2018-07-27T04:54:25.045Z,99972
2018-07-27T04:55:30.596Z,99964
2018-07-27T04:56:36.207Z,99967
2018-07-27T04:57:42.682Z,99964
2018-07-27T04:58:47.600Z,99964
2018-07-27T04:59:52.466Z,99969
2018-07-27T05:00:58.247Z,99975
2018-07-27T05:02:03.125Z,99969
2018-07-27T05:03:08.316Z,99967
2018-07-27T05:04:14.185Z,99967
2018-07-27T05:05:19.390Z,99969
2018-07-27T05:06:24.607Z,99972
2018-07-27T05:07:45.171Z,99969
2018-07-27T05:08:50.372Z,99977
2018-07-27T05:09:55.971Z,99967
2018-07-27T05:11:00.354Z,99967
2018-07-27T05:12:05.560Z,99969
2018-07-27T05:13:10.765Z,99969
2018-07-27T05:14:16.218Z,99977
2018-07-27T05:15:21.388Z,99964
2018-07-27T05:16:26.405Z,99969
2018-07-27T05:17:31.630Z,99961
2018-07-27T05:18:37.160Z,99972
2018-07-27T05:19:42.300Z,99977
2018-07-27T05:20:47.828Z,99964
2018-07-27T05:21:53.375Z,99967
2018-07-27T05:22:58.515Z,99958
2018-07-27T05:24:03.386Z,99955
2018-07-27T05:25:09.143Z,99958
2018-07-27T05:26:14.010Z,99967
2018-07-27T05:27:19.205Z,99961
2018-07-27T05:28:25.106Z,99961
2018-07-27T05:29:30.598Z,99961
2018-07-27T05:30:35.779Z,99969
2018-07-27T05:31:40.929Z,99961
2018-07-27T05:32:46.374Z,99964
2018-07-27T05:33:51.816Z,99972
2018-07-27T05:34:57.261Z,99967
2018-07-27T05:36:02.218Z,99975
2018-07-27T05:37:07.921Z,99969
2018-07-27T05:38:13.682Z,99969
2018-07-27T05:39:19.127Z,99969
2018-07-27T05:40:24.306Z,99972
2018-07-27T05:41:29.456Z,99964
2018-07-27T05:42:34.892Z,99967
2018-07-27T05:43:40.319Z,99972
2018-07-27T05:44:45.214Z,99972
2018-07-27T05:45:50.613Z,99977
2018-07-27T05:46:56.363Z,99983
2018-07-27T05:48:02.232Z,99977
2018-07-27T05:49:07.235Z,99980
2018-07-27T05:50:12.103Z,99977
2018-07-27T05:51:17.010Z,99977
2018-07-27T05:52:22.281Z,99977
2018-07-27T05:53:27.716Z,99986
2018-07-27T05:54:33.292Z,99980
2018-07-27T05:55:38.786Z,99975
2018-07-27T05:56:43.942Z,99980
2018-07-27T05:57:49.146Z,99975
2018-07-27T05:58:54.295Z,99989
2018-07-27T05:59:58.625Z,99975
2018-07-27T06:01:04.109Z,99975
2018-07-27T06:02:11.670Z,99977
2018-07-27T06:03:17.127Z,99986
2018-07-27T06:04:22.621Z,99989
2018-07-27T06:05:27.815Z,99980
2018-07-27T06:06:33.226Z,99969
2018-07-27T06:07:38.122Z,99986
2018-07-27T06:08:43.374Z,99977
2018-07-27T06:09:49.532Z,99980
2018-07-27T06:10:54.758Z,99980
2018-07-27T06:11:59.906Z,99977
2018-07-27T06:13:05.132Z,99980
2018-07-27T06:14:10.336Z,99975
2018-07-27T06:15:15.779Z,99977
2018-07-27T06:16:21.609Z,99975
2018-07-27T06:17:26.963Z,99969
2018-07-27T06:18:32.895Z,99972
2018-07-27T06:19:37.494Z,99977
2018-07-27T06:20:42.922Z,99969
2018-07-27T06:21:48.232Z,99969
2018-07-27T06:22:53.098Z,99964
2018-07-27T06:23:59.046Z,99972
2018-07-27T06:25:04.858Z,99975
2018-07-27T06:26:09.730Z,99975
2018-07-27T06:27:14.604Z,99972
2018-07-27T06:28:20.404Z,99969
2018-07-27T06:29:25.547Z,99975
2018-07-27T06:30:31.203Z,99967
2018-07-27T06:31:36.655Z,99972
2018-07-27T06:32:41.536Z,99964
2018-07-27T06:33:47.080Z,99967
2018-07-27T06:34:52.614Z,99972
2018-07-27T06:35:57.479Z,99972
2018-07-27T06:37:02.127Z,99977
2018-07-27T06:38:07.309Z,99967
2018-07-27T06:39:12.907Z,99967
2018-07-27T06:40:18.683Z,99975
2018-07-27T06:41:24.183Z,99969
2018-07-27T06:42:29.867Z,99975
2018-07-27T06:43:34.842Z,99980
2018-07-27T06:44:40.247Z,99967
2018-07-27T06:45:45.370Z,99972
2018-07-27T06:46:50.034Z,99969
2018-07-27T06:47:55.203Z,99969
2018-07-27T06:49:00.665Z,99977
2018-07-27T06:50:05.007Z,99972
2018-07-27T06:51:09.874Z,99961
2018-07-27T06:52:15.428Z,99969
2018-07-27T06:53:20.856Z,99964
2018-07-27T06:54:26.284Z,99967
2018-07-27T06:55:31.712Z,99964
2018-07-27T06:56:36.873Z,99969
2018-07-27T06:57:42.562Z,99961
2018-07-27T06:58:47.755Z,99964
2018-07-27T06:59:53.187Z,99969
2018-07-27T07:00:58.875Z,99972
2018-07-27T07:02:03.461Z,99969
2018-07-27T07:03:08.527Z,99967
2018-07-27T07:04:13.922Z,99969
2018-07-27T07:05:19.140Z,99967
2018-07-27T07:06:24.287Z,99967
2018-07-27T07:07:30.385Z,99975
2018-07-27T07:08:35.297Z,99964
2018-07-27T07:09:40.690Z,99967
2018-07-27T07:10:46.326Z,99961
2018-07-27T07:11:51.690Z,99972
2018-07-27T07:12:57.194Z,99969
2018-07-27T07:14:02.118Z,99967
2018-07-27T07:15:07.280Z,99964
2018-07-27T07:16:12.384Z,99958
2018-07-27T07:17:17.530Z,99972
2018-07-27T07:18:22.392Z,99969
2018-07-27T07:19:28.071Z,99967
2018-07-27T07:20:33.506Z,99964
2018-07-27T07:21:38.719Z,99961
2018-07-27T07:22:43.787Z,99958
2018-07-27T07:23:49.036Z,99958
2018-07-27T07:24:54.531Z,99964
2018-07-27T07:26:01.108Z,99955
2018-07-27T07:27:07.835Z,99958
2018-07-27T07:28:13.635Z,99964
2018-07-27T07:29:18.304Z,99961
2018-07-27T07:30:23.854Z,99967
2018-07-27T07:31:44.195Z,99967
2018-07-27T07:32:48.815Z,99958
2018-07-27T07:33:54.307Z,99961
2018-07-27T07:34:58.951Z,99955
2018-07-27T07:36:04.477Z,99967
2018-07-27T07:37:09.873Z,99964
2018-07-27T07:38:14.538Z,99964
2018-07-27T07:39:19.693Z,99958
2018-07-27T07:40:24.989Z,99958
2018-07-27T07:41:29.852Z,99949
2018-07-27T07:42:35.471Z,99946
2018-07-27T07:43:40.944Z,99946
2018-07-27T07:44:46.499Z,99958
2018-07-27T07:45:52.402Z,99943
2018-07-27T07:46:57.585Z,99946
2018-07-27T07:48:02.547Z,99946
2018-07-27T07:49:07.942Z,99946
2018-07-27T07:50:12.910Z,99949
2018-07-27T07:51:18.068Z,99946
2018-07-27T07:52:23.188Z,99946
2018-07-27T07:53:28.391Z,99943
2018-07-27T07:54:34.083Z,99955
2018-07-27T07:55:39.274Z,99946
2018-07-27T07:56:44.155Z,99941
2018-07-27T07:57:49.650Z,99932
2018-07-27T07:58:54.276Z,99941
2018-07-27T07:59:59.485Z,99943
2018-07-27T08:01:05.340Z,99949
2018-07-27T08:02:10.585Z,99935
2018-07-27T08:03:15.815Z,99938
2018-07-27T08:04:21.635Z,99926
2018-07-27T08:05:27.751Z,99932
2018-07-27T08:06:33.774Z,99943
2018-07-27T08:07:39.284Z,99935
2018-07-27T08:08:44.840Z,99935
2018-07-27T08:09:50.159Z,99938
2018-07-27T08:10:55.588Z,99935
2018-07-27T08:12:00.754Z,99932
2018-07-27T08:13:05.862Z,99920
2018-07-27T08:14:10.759Z,99926
2018-07-27T08:15:16.295Z,99926
2018-07-27T08:16:21.475Z,99926
2018-07-27T08:17:26.396Z,99923
2018-07-27T08:18:31.818Z,99926
2018-07-27T08:19:37.313Z,99923
2018-07-27T08:20:42.380Z,99923
2018-07-27T08:21:47.992Z,99920
2018-07-27T08:22:52.683Z,99920
2018-07-27T08:23:58.137Z,99920
2018-07-27T08:25:03.933Z,99911
2018-07-27T08:26:09.134Z,99917
2018-07-27T08:27:13.993Z,99914
2018-07-27T08:28:19.452Z,99914
2018-07-27T08:29:24.029Z,99917
2018-07-27T08:30:29.657Z,99917
2018-07-27T08:31:34.794Z,99914
2018-07-27T08:32:39.390Z,99920
2018-07-27T08:33:44.231Z,99914
2018-07-27T08:34:49.132Z,99914
2018-07-27T08:35:54.620Z,99920
2018-07-27T08:36:59.728Z,99911
2018-07-27T08:38:04.950Z,99911
2018-07-27T08:39:09.547Z,99906
2018-07-27T08:40:14.962Z,99914
2018-07-27T08:41:20.403Z,99914
2018-07-27T08:42:25.891Z,99909
2018-07-27T08:43:30.822Z,99909
2018-07-27T08:44:36.255Z,99906
2018-07-27T08:45:41.767Z,99911
2018-07-27T08:46:46.909Z,99911
2018-07-27T08:47:51.776Z,99903
2018-07-27T08:48:57.181Z,99911
2018-07-27T08:50:01.817Z,99911
2018-07-27T08:51:06.427Z,99900
2018-07-27T08:52:10.540Z,99900
2018-07-27T08:53:15.975Z,99903
2018-07-27T08:54:21.170Z,99909
2018-07-27T08:55:41.271Z,99906
2018-07-27T08:56:46.442Z,99903
2018-07-27T08:57:52.002Z,99903
2018-07-27T08:58:56.581Z,99894
2018-07-27T09:00:02.116Z,99903
2018-07-27T09:01:06.386Z,99888
2018-07-27T09:02:11.847Z,99891
2018-07-27T09:03:16.748Z,99897
2018-07-27T09:04:21.619Z,99900
2018-07-27T09:05:26.856Z,99888
2018-07-27T09:06:32.461Z,99897
2018-07-27T09:07:37.044Z,99897
2018-07-27T09:08:42.012Z,99894
2018-07-27T09:09:47.579Z,99903
2018-07-27T09:10:52.445Z,99897
2018-07-27T09:11:57.657Z,99900
2018-07-27T09:13:02.521Z,99894
2018-07-27T09:14:07.100Z,99903
2018-07-27T09:15:12.529Z,99897
2018-07-27T09:16:18.058Z,99894
2018-07-27T09:17:23.435Z,99894
2018-07-27T09:18:28.442Z,99900
2018-07-27T09:19:33.369Z,99906
2018-07-27T09:20:38.618Z,99897
2018-07-27T09:21:44.073Z,99903
2018-07-27T09:22:48.947Z,99891
2018-07-27T09:23:53.553Z,99885
2018-07-27T09:24:59.737Z,99891
2018-07-27T09:26:05.172Z,99894
2018-07-27T09:27:10.384Z,99897
2018-07-27T09:28:16.097Z,99879
2018-07-27T09:29:21.267Z,99894
2018-07-27T09:30:41.113Z,99882
2018-07-27T09:31:46.568Z,99879
2018-07-27T09:32:51.786Z,99882
2018-07-27T09:33:56.670Z,99885
2018-07-27T09:35:01.945Z,99876
2018-07-27T09:36:06.900Z,99879
2018-07-27T09:37:12.164Z,99882
2018-07-27T09:38:17.385Z,99888
2018-07-27T09:39:22.888Z,99879
2018-07-27T09:40:28.696Z,99891
2018-07-27T09:41:33.845Z,99891
2018-07-27T09:42:39.534Z,99882
2018-07-27T09:43:44.686Z,99882
2018-07-27T09:44:49.288Z,99876
2018-07-27T09:45:54.546Z,99882
2018-07-27T09:46:59.451Z,99882
2018-07-27T09:48:03.742Z,99876
2018-07-27T09:49:09.235Z,99882
2018-07-27T09:50:13.814Z,99885
2018-07-27T09:51:18.389Z,99888
2018-07-27T09:52:24.015Z,99876
2018-07-27T09:53:29.167Z,99876
2018-07-27T09:54:34.590Z,99879
2018-07-27T09:55:39.781Z,99876
2018-07-27T09:56:44.405Z,99874
2018-07-27T09:57:50.161Z,99874
2018-07-27T09:58:55.901Z,99874
2018-07-27T10:00:01.057Z,99876
2018-07-27T10:01:06.271Z,99871
2018-07-27T10:02:11.244Z,99868
2018-07-27T10:03:16.675Z,99859
2018-07-27T10:04:22.512Z,99871
2018-07-27T10:05:27.633Z,99862
2018-07-27T10:06:32.745Z,99856
2018-07-27T10:07:37.966Z,99862
2018-07-27T10:08:42.912Z,99865
2018-07-27T10:09:48.036Z,99859
2018-07-27T10:10:53.382Z,99865
2018-07-27T10:11:58.355Z,99847
2018-07-27T10:13:03.851Z,99850
2018-07-27T10:14:08.444Z,99859
2018-07-27T10:15:13.703Z,99856
2018-07-27T10:16:19.170Z,99856
2018-07-27T10:17:24.030Z,99850
2018-07-27T10:18:29.322Z,99847
2018-07-27T10:19:34.670Z,99853
2018-07-27T10:20:39.847Z,99847
2018-07-27T10:21:45.526Z,99859
2018-07-27T10:22:50.719Z,99847
2018-07-27T10:23:56.147Z,99847
2018-07-27T10:25:01.789Z,99844
2018-07-27T10:26:06.668Z,99847
2018-07-27T10:27:12.130Z,99853
2018-07-27T10:28:17.305Z,99842
2018-07-27T10:29:22.735Z,99842
2018-07-27T10:30:28.774Z,99839
2018-07-27T10:31:33.964Z,99836
2018-07-27T10:32:38.840Z,99839
2018-07-27T10:33:44.485Z,99844
2018-07-27T10:34:49.422Z,99850
2018-07-27T10:35:54.585Z,99842
2018-07-27T10:37:00.265Z,99836
2018-07-27T10:38:05.172Z,99830
2018-07-27T10:39:10.645Z,99833
2018-07-27T10:40:16.341Z,99839
2018-07-27T10:41:21.798Z,99844
2018-07-27T10:42:27.064Z,99833
2018-07-27T10:43:32.560Z,99836
2018-07-27T10:44:37.967Z,99833
2018-07-27T10:45:43.531Z,99827
2018-07-27T10:46:48.679Z,99830
2018-07-27T10:47:53.841Z,99830
2018-07-27T10:48:59.231Z,99822
2018-07-27T10:50:04.183Z,99825
2018-07-27T10:51:09.694Z,99819
2018-07-27T10:52:15.276Z,99819
2018-07-27T10:53:20.710Z,99807
2018-07-27T10:54:41.152Z,99813
2018-07-27T10:55:46.030Z,99819
2018-07-27T10:56:50.970Z,99822
2018-07-27T10:57:56.095Z,99813
2018-07-27T10:59:01.571Z,99819
2018-07-27T11:00:06.189Z,99819
2018-07-27T11:01:11.920Z,99810
2018-07-27T11:02:17.413Z,99807
2018-07-27T11:03:22.710Z,99802
2018-07-27T11:04:28.307Z,99819
2018-07-27T11:05:33.511Z,99805
2018-07-27T11:06:38.993Z,99813
2018-07-27T11:07:44.145Z,99807
2018-07-27T11:08:49.862Z,99799
2018-07-27T11:09:56.062Z,99799
2018-07-27T11:11:01.562Z,99799
2018-07-27T11:12:07.066Z,99804
2018-07-27T11:13:12.944Z,99796
2018-07-27T11:14:18.437Z,99793
2018-07-27T11:15:23.661Z,99790
2018-07-27T11:16:43.709Z,99796
2018-07-27T11:17:49.354Z,99790
2018-07-27T11:18:54.980Z,99782
2018-07-27T11:19:59.900Z,99799
2018-07-27T11:21:05.362Z,99793
2018-07-27T11:22:10.641Z,99788
2018-07-27T11:23:15.780Z,99785
2018-07-27T11:24:20.417Z,99788
2018-07-27T11:25:26.347Z,99785
2018-07-27T11:26:31.879Z,99788
2018-07-27T11:27:37.557Z,99796
2018-07-27T11:28:42.988Z,99782
2018-07-27T11:29:48.447Z,99788
2018-07-27T11:30:54.118Z,99782
2018-07-27T11:31:59.640Z,99771
2018-07-27T11:33:04.824Z,99779
2018-07-27T11:34:10.052Z,99776
2018-07-27T11:35:15.555Z,99773
2018-07-27T11:36:20.988Z,99771
2018-07-27T11:37:40.913Z,99779
2018-07-27T11:38:46.385Z,99771
2018-07-27T11:39:51.213Z,99768
2018-07-27T11:40:56.355Z,99762
2018-07-27T11:42:01.218Z,99768
2018-07-27T11:43:06.478Z,99762
2018-07-27T11:44:11.735Z,99765
2018-07-27T11:45:16.676Z,99762
2018-07-27T11:46:22.070Z,99773
2018-07-27T11:47:26.928Z,99765
2018-07-27T11:48:32.133Z,99762
2018-07-27T11:49:37.598Z,99771
2018-07-27T11:50:42.748Z,99756
2018-07-27T11:51:48.629Z,99765
2018-07-27T11:52:53.531Z,99759
2018-07-27T11:53:58.110Z,99756
2018-07-27T11:55:03.603Z,99756
2018-07-27T11:56:09.080Z,99762
2018-07-27T11:57:14.227Z,99753
2018-07-27T11:58:19.986Z,99759
2018-07-27T11:59:25.332Z,99765
2018-07-27T12:00:30.305Z,99747
2018-07-27T12:01:35.466Z,99747
2018-07-27T12:02:40.756Z,99756
2018-07-27T12:03:46.535Z,99753
2018-07-27T12:04:51.995Z,99750
2018-07-27T12:05:57.536Z,99747
2018-07-27T12:07:02.785Z,99744
2018-07-27T12:08:08.243Z,99738
2018-07-27T12:09:12.611Z,99747
2018-07-27T12:10:18.342Z,99747
2018-07-27T12:11:23.195Z,99744
2018-07-27T12:12:28.910Z,99744
2018-07-27T12:13:34.194Z,99738
2018-07-27T12:14:39.675Z,99730
2018-07-27T12:15:45.886Z,99747
2018-07-27T12:16:51.041Z,99735
2018-07-27T12:17:55.485Z,99727
2018-07-27T12:19:01.237Z,99732
2018-07-27T12:20:06.108Z,99738
2018-07-27T12:21:11.630Z,99741
2018-07-27T12:22:17.766Z,99738
2018-07-27T12:23:23.162Z,99738
2018-07-27T12:24:29.215Z,99732
2018-07-27T12:25:34.785Z,99738
2018-07-27T12:26:40.227Z,99724
2018-07-27T12:27:46.098Z,99721
2018-07-27T12:28:51.509Z,99721
2018-07-27T12:29:56.985Z,99721
2018-07-27T12:31:02.545Z,99727
2018-07-27T12:32:07.152Z,99727
2018-07-27T12:33:12.405Z,99727
2018-07-27T12:34:18.150Z,99718
2018-07-27T12:35:23.656Z,99718
2018-07-27T12:36:29.388Z,99726
2018-07-27T12:37:34.582Z,99718
2018-07-27T12:38:39.989Z,99718
2018-07-27T12:39:45.668Z,99721
2018-07-27T12:40:51.029Z,99724
2018-07-27T12:41:56.465Z,99724
2018-07-27T12:43:02.203Z,99718
2018-07-27T12:44:06.741Z,99712
2018-07-27T12:45:11.900Z,99729
2018-07-27T12:46:17.439Z,99706
2018-07-27T12:47:22.649Z,99715
2018-07-27T12:48:28.434Z,99703
2018-07-27T12:49:33.862Z,99706
2018-07-27T12:50:38.975Z,99706
2018-07-27T12:51:44.086Z,99709
2018-07-27T12:52:49.274Z,99709
2018-07-27T12:53:54.467Z,99694
2018-07-27T12:55:00.208Z,99700
2018-07-27T12:56:05.350Z,99706
2018-07-27T12:57:10.777Z,99703
2018-07-27T12:58:16.228Z,99697
2018-07-27T12:59:21.614Z,99712
2018-07-27T13:00:27.469Z,99691
2018-07-27T13:01:32.338Z,99689
2018-07-27T13:02:37.805Z,99686
2018-07-27T13:03:42.941Z,99689
2018-07-27T13:04:48.391Z,99686
2018-07-27T13:05:53.824Z,99697
2018-07-27T13:06:58.945Z,99695
2018-07-27T13:08:04.374Z,99683
2018-07-27T13:09:08.997Z,99674
2018-07-27T13:10:14.424Z,99677
2018-07-27T13:11:19.858Z,99683
2018-07-27T13:12:40.311Z,99677
2018-07-27T13:13:45.780Z,99677
2018-07-27T13:14:51.122Z,99671
2018-07-27T13:15:56.327Z,99680
2018-07-27T13:17:01.236Z,99671
2018-07-27T13:18:05.828Z,99674
2018-07-27T13:19:11.514Z,99674
2018-07-27T13:20:16.945Z,99668
2018-07-27T13:21:22.409Z,99671
2018-07-27T13:22:28.757Z,99663
2018-07-27T13:23:35.469Z,99651
2018-07-27T13:27:27.250Z,99666
2018-07-27T13:28:32.126Z,99660
2018-07-27T13:29:37.272Z,99669
2018-07-27T13:30:42.543Z,99660
2018-07-27T13:32:51.226Z,99651
2018-07-27T13:33:56.439Z,99654
2018-07-27T13:35:01.627Z,99651
2018-07-27T13:36:05.634Z,99651
2018-07-27T13:37:11.487Z,99657
2018-07-27T13:38:16.968Z,99663
2018-07-27T13:39:21.792Z,99643
2018-07-27T13:40:27.672Z,99646
2018-07-27T13:41:32.891Z,99648
2018-07-27T13:42:38.010Z,99635
2018-07-27T13:43:42.687Z,99635
2018-07-27T13:44:48.244Z,99638
2018-07-27T13:45:53.638Z,99629
2018-07-27T13:46:59.067Z,99638
2018-07-27T13:48:03.669Z,99635
2018-07-27T13:49:08.967Z,99635
2018-07-27T13:50:14.146Z,99643
2018-07-27T13:51:19.306Z,99638
2018-07-27T13:52:24.575Z,99635
2018-07-27T13:53:30.010Z,99635
2018-07-27T13:54:35.271Z,99641
2018-07-27T13:55:40.182Z,99629
2018-07-27T13:56:45.701Z,99641
2018-07-27T13:57:51.539Z,99626
2018-07-27T13:58:56.413Z,99635
2018-07-27T14:00:01.648Z,99629
2018-07-27T14:01:06.491Z,99620
2018-07-27T14:02:11.354Z,99623
2018-07-27T14:03:16.245Z,99617
2018-07-27T14:04:21.672Z,99603